sensor_id;sensor_type;location;lat;lon;timestamp;P1;durP1;ratioP1;P2;durP2;ratioP2
7961;SDS011;4026;43.652;24.906;2023-06-22T00:00:47;9.20;;;5.73;;
7961;SDS011;4026;43.652;24.906;2023-06-22T00:03:14;9.30;;;5.43;;
7961;SDS011;4026;43.652;24.906;2023-06-22T00:05:41;10.37;;;5.60;;
7961;SDS011;4026;43.652;24.906;2023-06-22T00:08:08;12.57;;;5.67;;
7961;SDS011;4026;43.652;24.906;2023-06-22T00:10:35;12.80;;;6.13;;
7961;SDS011;4026;43.652;24.906;2023-06-22T00:13:02;11.57;;;5.90;;
7961;SDS011;4026;43.652;24.906;2023-06-22T00:15:29;8.70;;;5.63;;
7961;SDS011;4026;43.652;24.906;2023-06-22T00:17:57;9.80;;;6.33;;
7961;SDS011;4026;43.652;24.906;2023-06-22T00:20:24;9.47;;;5.93;;
7961;SDS011;4026;43.652;24.906;2023-06-22T00:22:53;9.43;;;5.60;;
7961;SDS011;4026;43.652;24.906;2023-06-22T00:25:20;9.13;;;5.40;;
7961;SDS011;4026;43.652;24.906;2023-06-22T00:27:47;9.83;;;5.67;;
7961;SDS011;4026;43.652;24.906;2023-06-22T00:30:14;10.73;;;6.17;;
7961;SDS011;4026;43.652;24.906;2023-06-22T00:32:42;12.20;;;5.67;;
7961;SDS011;4026;43.652;24.906;2023-06-22T00:35:11;10.03;;;5.57;;
7961;SDS011;4026;43.652;24.906;2023-06-22T00:37:38;9.63;;;5.57;;
7961;SDS011;4026;43.652;24.906;2023-06-22T00:40:09;9.73;;;5.40;;
7961;SDS011;4026;43.652;24.906;2023-06-22T00:42:37;7.90;;;5.37;;
7961;SDS011;4026;43.652;24.906;2023-06-22T00:45:05;9.90;;;5.47;;
7961;SDS011;4026;43.652;24.906;2023-06-22T00:47:33;9.47;;;5.70;;
7961;SDS011;4026;43.652;24.906;2023-06-22T00:50:01;8.70;;;5.50;;
7961;SDS011;4026;43.652;24.906;2023-06-22T00:52:30;9.27;;;5.80;;
7961;SDS011;4026;43.652;24.906;2023-06-22T00:55:00;9.47;;;5.77;;
7961;SDS011;4026;43.652;24.906;2023-06-22T00:57:28;9.13;;;6.07;;
7961;SDS011;4026;43.652;24.906;2023-06-22T00:59:55;8.80;;;5.53;;
7961;SDS011;4026;43.652;24.906;2023-06-22T01:02:22;8.93;;;5.80;;
7961;SDS011;4026;43.652;24.906;2023-06-22T01:04:49;8.27;;;5.47;;
7961;SDS011;4026;43.652;24.906;2023-06-22T01:07:25;7.72;;;4.97;;
7961;SDS011;4026;43.652;24.906;2023-06-22T01:10:02;10.37;;;5.97;;
7961;SDS011;4026;43.652;24.906;2023-06-22T01:12:34;9.57;;;5.77;;
7961;SDS011;4026;43.652;24.906;2023-06-22T01:15:08;10.60;;;5.77;;
7961;SDS011;4026;43.652;24.906;2023-06-22T01:17:38;8.65;;;4.93;;
7961;SDS011;4026;43.652;24.906;2023-06-22T01:20:09;8.43;;;5.60;;
7961;SDS011;4026;43.652;24.906;2023-06-22T01:22:43;8.23;;;5.47;;
7961;SDS011;4026;43.652;24.906;2023-06-22T01:25:20;9.37;;;5.67;;
7961;SDS011;4026;43.652;24.906;2023-06-22T01:27:53;9.25;;;5.53;;
7961;SDS011;4026;43.652;24.906;2023-06-22T01:30:29;9.17;;;5.83;;
7961;SDS011;4026;43.652;24.906;2023-06-22T01:32:59;9.10;;;5.60;;
7961;SDS011;4026;43.652;24.906;2023-06-22T01:35:27;8.18;;;5.10;;
7961;SDS011;4026;43.652;24.906;2023-06-22T01:37:55;10.80;;;5.60;;
7961;SDS011;4026;43.652;24.906;2023-06-22T01:40:22;10.43;;;5.93;;
7961;SDS011;4026;43.652;24.906;2023-06-22T01:42:50;8.00;;;5.37;;
7961;SDS011;4026;43.652;24.906;2023-06-22T01:45:18;8.53;;;5.40;;
7961;SDS011;4026;43.652;24.906;2023-06-22T01:47:46;10.60;;;5.50;;
7961;SDS011;4026;43.652;24.906;2023-06-22T01:50:15;8.10;;;5.30;;
7961;SDS011;4026;43.652;24.906;2023-06-22T01:52:42;11.27;;;5.77;;
7961;SDS011;4026;43.652;24.906;2023-06-22T01:55:09;9.97;;;5.73;;
7961;SDS011;4026;43.652;24.906;2023-06-22T01:57:35;10.10;;;5.63;;
7961;SDS011;4026;43.652;24.906;2023-06-22T02:00:04;9.30;;;5.43;;
7961;SDS011;4026;43.652;24.906;2023-06-22T02:02:36;9.43;;;5.47;;
7961;SDS011;4026;43.652;24.906;2023-06-22T02:05:11;8.60;;;5.60;;
7961;SDS011;4026;43.652;24.906;2023-06-22T02:07:43;11.77;;;5.80;;
7961;SDS011;4026;43.652;24.906;2023-06-22T02:10:13;9.00;;;5.00;;
7961;SDS011;4026;43.652;24.906;2023-06-22T02:12:42;8.97;;;5.53;;
7961;SDS011;4026;43.652;24.906;2023-06-22T02:15:10;10.40;;;6.10;;
7961;SDS011;4026;43.652;24.906;2023-06-22T02:17:39;10.17;;;5.90;;
7961;SDS011;4026;43.652;24.906;2023-06-22T02:20:13;9.00;;;5.47;;
7961;SDS011;4026;43.652;24.906;2023-06-22T02:22:40;9.03;;;5.90;;
7961;SDS011;4026;43.652;24.906;2023-06-22T02:25:08;9.33;;;5.40;;
7961;SDS011;4026;43.652;24.906;2023-06-22T02:27:35;9.90;;;5.93;;
7961;SDS011;4026;43.652;24.906;2023-06-22T02:30:01;11.17;;;5.67;;
7961;SDS011;4026;43.652;24.906;2023-06-22T02:32:29;8.80;;;5.73;;
7961;SDS011;4026;43.652;24.906;2023-06-22T02:34:55;8.33;;;5.23;;
7961;SDS011;4026;43.652;24.906;2023-06-22T02:37:24;9.77;;;5.30;;
7961;SDS011;4026;43.652;24.906;2023-06-22T02:39:54;11.07;;;5.73;;
7961;SDS011;4026;43.652;24.906;2023-06-22T02:42:21;8.93;;;6.20;;
7961;SDS011;4026;43.652;24.906;2023-06-22T02:44:48;8.73;;;5.90;;
7961;SDS011;4026;43.652;24.906;2023-06-22T02:47:15;10.67;;;6.30;;
7961;SDS011;4026;43.652;24.906;2023-06-22T02:49:42;10.93;;;6.40;;
7961;SDS011;4026;43.652;24.906;2023-06-22T02:52:10;9.00;;;6.07;;
7961;SDS011;4026;43.652;24.906;2023-06-22T02:54:38;11.13;;;5.87;;
7961;SDS011;4026;43.652;24.906;2023-06-22T02:57:05;12.60;;;6.60;;
7961;SDS011;4026;43.652;24.906;2023-06-22T02:59:32;10.60;;;6.43;;
7961;SDS011;4026;43.652;24.906;2023-06-22T03:01:59;11.17;;;6.37;;
7961;SDS011;4026;43.652;24.906;2023-06-22T03:04:25;11.67;;;6.23;;
7961;SDS011;4026;43.652;24.906;2023-06-22T03:06:52;9.87;;;6.63;;
7961;SDS011;4026;43.652;24.906;2023-06-22T03:09:19;13.17;;;6.47;;
7961;SDS011;4026;43.652;24.906;2023-06-22T03:11:47;10.87;;;6.73;;
7961;SDS011;4026;43.652;24.906;2023-06-22T03:14:14;12.37;;;6.83;;
7961;SDS011;4026;43.652;24.906;2023-06-22T03:16:41;13.40;;;7.20;;
7961;SDS011;4026;43.652;24.906;2023-06-22T03:19:08;13.33;;;7.10;;
7961;SDS011;4026;43.652;24.906;2023-06-22T03:21:37;13.03;;;7.10;;
7961;SDS011;4026;43.652;24.906;2023-06-22T03:24:04;10.90;;;7.00;;
7961;SDS011;4026;43.652;24.906;2023-06-22T03:26:32;12.30;;;6.47;;
7961;SDS011;4026;43.652;24.906;2023-06-22T03:29:00;14.20;;;6.63;;
7961;SDS011;4026;43.652;24.906;2023-06-22T03:31:28;14.37;;;7.27;;
7961;SDS011;4026;43.652;24.906;2023-06-22T03:33:55;15.63;;;6.77;;
7961;SDS011;4026;43.652;24.906;2023-06-22T03:36:22;12.47;;;6.63;;
7961;SDS011;4026;43.652;24.906;2023-06-22T03:38:49;12.77;;;6.97;;
7961;SDS011;4026;43.652;24.906;2023-06-22T03:41:17;11.87;;;6.60;;
7961;SDS011;4026;43.652;24.906;2023-06-22T03:43:43;16.17;;;6.90;;
7961;SDS011;4026;43.652;24.906;2023-06-22T03:46:12;13.43;;;7.30;;
7961;SDS011;4026;43.652;24.906;2023-06-22T03:48:38;11.73;;;7.00;;
7961;SDS011;4026;43.652;24.906;2023-06-22T03:51:05;11.10;;;7.20;;
7961;SDS011;4026;43.652;24.906;2023-06-22T03:53:32;12.63;;;7.07;;
7961;SDS011;4026;43.652;24.906;2023-06-22T03:55:59;13.73;;;7.20;;
7961;SDS011;4026;43.652;24.906;2023-06-22T03:58:26;13.90;;;7.97;;
7961;SDS011;4026;43.652;24.906;2023-06-22T04:00:57;13.87;;;7.13;;
7961;SDS011;4026;43.652;24.906;2023-06-22T04:03:26;13.57;;;7.57;;
7961;SDS011;4026;43.652;24.906;2023-06-22T04:05:53;14.33;;;7.17;;
7961;SDS011;4026;43.652;24.906;2023-06-22T04:08:20;11.37;;;7.10;;
7961;SDS011;4026;43.652;24.906;2023-06-22T04:10:47;14.30;;;7.70;;
7961;SDS011;4026;43.652;24.906;2023-06-22T04:13:13;14.57;;;8.00;;
7961;SDS011;4026;43.652;24.906;2023-06-22T04:15:40;15.63;;;8.17;;
7961;SDS011;4026;43.652;24.906;2023-06-22T04:18:07;16.17;;;8.03;;
7961;SDS011;4026;43.652;24.906;2023-06-22T04:20:35;14.67;;;7.63;;
7961;SDS011;4026;43.652;24.906;2023-06-22T04:23:02;13.43;;;7.43;;
7961;SDS011;4026;43.652;24.906;2023-06-22T04:25:29;14.80;;;8.60;;
7961;SDS011;4026;43.652;24.906;2023-06-22T04:27:56;12.80;;;7.83;;
7961;SDS011;4026;43.652;24.906;2023-06-22T04:30:23;12.63;;;7.57;;
7961;SDS011;4026;43.652;24.906;2023-06-22T04:32:50;13.63;;;7.60;;
7961;SDS011;4026;43.652;24.906;2023-06-22T04:35:22;14.17;;;7.77;;
7961;SDS011;4026;43.652;24.906;2023-06-22T04:37:52;14.27;;;7.73;;
7961;SDS011;4026;43.652;24.906;2023-06-22T04:40:20;14.27;;;7.40;;
7961;SDS011;4026;43.652;24.906;2023-06-22T04:42:48;13.27;;;8.07;;
7961;SDS011;4026;43.652;24.906;2023-06-22T04:45:18;18.00;;;7.77;;
7961;SDS011;4026;43.652;24.906;2023-06-22T04:47:45;14.00;;;7.90;;
7961;SDS011;4026;43.652;24.906;2023-06-22T04:50:12;10.47;;;7.23;;
7961;SDS011;4026;43.652;24.906;2023-06-22T04:52:39;13.32;;;7.65;;
7961;SDS011;4026;43.652;24.906;2023-06-22T04:55:08;11.87;;;7.50;;
7961;SDS011;4026;43.652;24.906;2023-06-22T04:57:35;12.43;;;7.03;;
7961;SDS011;4026;43.652;24.906;2023-06-22T05:00:05;11.32;;;7.25;;
7961;SDS011;4026;43.652;24.906;2023-06-22T05:02:37;13.48;;;7.50;;
7961;SDS011;4026;43.652;24.906;2023-06-22T05:05:04;10.50;;;6.65;;
7961;SDS011;4026;43.652;24.906;2023-06-22T05:07:32;10.68;;;6.82;;
7961;SDS011;4026;43.652;24.906;2023-06-22T05:09:59;12.90;;;6.93;;
7961;SDS011;4026;43.652;24.906;2023-06-22T05:12:29;11.55;;;6.45;;
7961;SDS011;4026;43.652;24.906;2023-06-22T05:14:56;13.45;;;7.07;;
7961;SDS011;4026;43.652;24.906;2023-06-22T05:17:23;12.65;;;7.25;;
7961;SDS011;4026;43.652;24.906;2023-06-22T05:19:50;9.32;;;6.55;;
7961;SDS011;4026;43.652;24.906;2023-06-22T05:22:17;9.77;;;6.35;;
7961;SDS011;4026;43.652;24.906;2023-06-22T05:24:44;8.60;;;6.05;;
7961;SDS011;4026;43.652;24.906;2023-06-22T05:27:12;8.52;;;5.82;;
7961;SDS011;4026;43.652;24.906;2023-06-22T05:29:40;10.70;;;7.10;;
7961;SDS011;4026;43.652;24.906;2023-06-22T05:32:07;8.68;;;5.90;;
7961;SDS011;4026;43.652;24.906;2023-06-22T05:34:34;9.55;;;6.47;;
7961;SDS011;4026;43.652;24.906;2023-06-22T05:37:01;7.50;;;6.03;;
7961;SDS011;4026;43.652;24.906;2023-06-22T05:39:28;10.02;;;6.40;;
7961;SDS011;4026;43.652;24.906;2023-06-22T05:41:55;8.57;;;6.00;;
7961;SDS011;4026;43.652;24.906;2023-06-22T05:44:22;9.30;;;6.03;;
7961;SDS011;4026;43.652;24.906;2023-06-22T05:46:50;9.73;;;6.10;;
7961;SDS011;4026;43.652;24.906;2023-06-22T05:49:17;9.75;;;6.15;;
7961;SDS011;4026;43.652;24.906;2023-06-22T05:51:44;10.07;;;6.05;;
7961;SDS011;4026;43.652;24.906;2023-06-22T05:54:11;9.13;;;5.88;;
7961;SDS011;4026;43.652;24.906;2023-06-22T05:56:38;7.22;;;4.70;;
7961;SDS011;4026;43.652;24.906;2023-06-22T05:59:05;8.85;;;5.80;;
7961;SDS011;4026;43.652;24.906;2023-06-22T06:01:32;7.80;;;5.53;;
7961;SDS011;4026;43.652;24.906;2023-06-22T06:04:02;8.93;;;5.32;;
7961;SDS011;4026;43.652;24.906;2023-06-22T06:06:30;9.55;;;5.40;;
7961;SDS011;4026;43.652;24.906;2023-06-22T06:08:56;11.60;;;5.45;;
7961;SDS011;4026;43.652;24.906;2023-06-22T06:11:24;8.15;;;5.60;;
7961;SDS011;4026;43.652;24.906;2023-06-22T06:13:51;7.85;;;5.13;;
7961;SDS011;4026;43.652;24.906;2023-06-22T06:16:18;8.68;;;5.15;;
7961;SDS011;4026;43.652;24.906;2023-06-22T06:18:45;8.15;;;4.75;;
7961;SDS011;4026;43.652;24.906;2023-06-22T06:21:15;7.15;;;4.78;;
7961;SDS011;4026;43.652;24.906;2023-06-22T06:23:41;7.63;;;5.03;;
7961;SDS011;4026;43.652;24.906;2023-06-22T06:26:08;6.88;;;4.57;;
7961;SDS011;4026;43.652;24.906;2023-06-22T06:28:35;6.53;;;4.90;;
7961;SDS011;4026;43.652;24.906;2023-06-22T06:31:02;6.60;;;4.95;;
7961;SDS011;4026;43.652;24.906;2023-06-22T06:33:32;9.38;;;5.00;;
7961;SDS011;4026;43.652;24.906;2023-06-22T06:35:59;7.65;;;4.95;;
7961;SDS011;4026;43.652;24.906;2023-06-22T06:38:29;8.60;;;5.10;;
7961;SDS011;4026;43.652;24.906;2023-06-22T06:40:56;7.45;;;4.82;;
7961;SDS011;4026;43.652;24.906;2023-06-22T06:43:24;6.57;;;4.50;;
7961;SDS011;4026;43.652;24.906;2023-06-22T06:45:51;6.22;;;4.32;;
7961;SDS011;4026;43.652;24.906;2023-06-22T06:48:18;4.95;;;3.88;;
7961;SDS011;4026;43.652;24.906;2023-06-22T06:50:44;5.70;;;4.38;;
7961;SDS011;4026;43.652;24.906;2023-06-22T06:53:11;7.85;;;4.82;;
7961;SDS011;4026;43.652;24.906;2023-06-22T06:55:39;12.52;;;4.60;;
7961;SDS011;4026;43.652;24.906;2023-06-22T06:58:06;6.63;;;4.47;;
7961;SDS011;4026;43.652;24.906;2023-06-22T07:00:35;6.03;;;4.53;;
7961;SDS011;4026;43.652;24.906;2023-06-22T07:03:02;6.07;;;4.05;;
7961;SDS011;4026;43.652;24.906;2023-06-22T07:05:29;6.50;;;3.80;;
7961;SDS011;4026;43.652;24.906;2023-06-22T07:07:56;6.15;;;4.72;;
7961;SDS011;4026;43.652;24.906;2023-06-22T07:10:22;6.43;;;4.35;;
7961;SDS011;4026;43.652;24.906;2023-06-22T07:12:51;5.75;;;4.32;;
7961;SDS011;4026;43.652;24.906;2023-06-22T07:15:17;6.78;;;4.85;;
7961;SDS011;4026;43.652;24.906;2023-06-22T07:17:44;8.05;;;4.80;;
7961;SDS011;4026;43.652;24.906;2023-06-22T07:20:11;13.25;;;9.32;;
7961;SDS011;4026;43.652;24.906;2023-06-22T07:22:39;9.07;;;6.20;;
7961;SDS011;4026;43.652;24.906;2023-06-22T07:25:07;6.18;;;4.82;;
7961;SDS011;4026;43.652;24.906;2023-06-22T07:27:36;7.97;;;5.35;;
7961;SDS011;4026;43.652;24.906;2023-06-22T07:30:07;8.10;;;5.85;;
7961;SDS011;4026;43.652;24.906;2023-06-22T07:32:34;12.57;;;5.85;;
7961;SDS011;4026;43.652;24.906;2023-06-22T07:35:01;6.45;;;4.80;;
7961;SDS011;4026;43.652;24.906;2023-06-22T07:37:29;7.22;;;4.75;;
7961;SDS011;4026;43.652;24.906;2023-06-22T07:39:58;7.43;;;5.00;;
7961;SDS011;4026;43.652;24.906;2023-06-22T07:42:25;6.93;;;5.28;;
7961;SDS011;4026;43.652;24.906;2023-06-22T07:44:52;6.70;;;4.93;;
7961;SDS011;4026;43.652;24.906;2023-06-22T07:47:21;6.68;;;4.90;;
7961;SDS011;4026;43.652;24.906;2023-06-22T07:49:50;7.70;;;5.60;;
7961;SDS011;4026;43.652;24.906;2023-06-22T07:52:17;6.28;;;4.78;;
7961;SDS011;4026;43.652;24.906;2023-06-22T07:54:44;6.20;;;4.97;;
7961;SDS011;4026;43.652;24.906;2023-06-22T07:57:11;5.70;;;4.55;;
7961;SDS011;4026;43.652;24.906;2023-06-22T07:59:38;5.45;;;4.32;;
7961;SDS011;4026;43.652;24.906;2023-06-22T08:02:05;6.15;;;4.35;;
7961;SDS011;4026;43.652;24.906;2023-06-22T08:04:35;5.95;;;4.53;;
7961;SDS011;4026;43.652;24.906;2023-06-22T08:07:02;7.60;;;4.47;;
7961;SDS011;4026;43.652;24.906;2023-06-22T08:09:29;6.00;;;4.32;;
7961;SDS011;4026;43.652;24.906;2023-06-22T08:11:58;5.95;;;4.70;;
7961;SDS011;4026;43.652;24.906;2023-06-22T08:14:25;5.78;;;4.40;;
7961;SDS011;4026;43.652;24.906;2023-06-22T08:16:52;5.57;;;4.13;;
7961;SDS011;4026;43.652;24.906;2023-06-22T08:19:19;5.50;;;4.47;;
7961;SDS011;4026;43.652;24.906;2023-06-22T08:21:47;6.80;;;5.05;;
7961;SDS011;4026;43.652;24.906;2023-06-22T08:24:14;6.72;;;4.75;;
7961;SDS011;4026;43.652;24.906;2023-06-22T08:26:41;6.43;;;4.63;;
7961;SDS011;4026;43.652;24.906;2023-06-22T08:29:07;8.13;;;5.20;;
7961;SDS011;4026;43.652;24.906;2023-06-22T08:31:35;6.55;;;4.95;;
7961;SDS011;4026;43.652;24.906;2023-06-22T08:34:02;5.70;;;4.50;;
7961;SDS011;4026;43.652;24.906;2023-06-22T08:36:29;5.80;;;4.65;;
7961;SDS011;4026;43.652;24.906;2023-06-22T08:38:59;6.03;;;5.00;;
7961;SDS011;4026;43.652;24.906;2023-06-22T08:41:26;6.72;;;4.95;;
7961;SDS011;4026;43.652;24.906;2023-06-22T08:43:53;6.53;;;4.70;;
7961;SDS011;4026;43.652;24.906;2023-06-22T08:46:20;5.55;;;4.55;;
7961;SDS011;4026;43.652;24.906;2023-06-22T08:48:55;6.75;;;4.82;;
7961;SDS011;4026;43.652;24.906;2023-06-22T08:51:22;5.30;;;4.50;;
7961;SDS011;4026;43.652;24.906;2023-06-22T08:53:49;8.43;;;4.90;;
7961;SDS011;4026;43.652;24.906;2023-06-22T08:56:17;5.85;;;4.72;;
7961;SDS011;4026;43.652;24.906;2023-06-22T08:58:44;8.30;;;4.93;;
7961;SDS011;4026;43.652;24.906;2023-06-22T09:01:11;6.70;;;4.75;;
7961;SDS011;4026;43.652;24.906;2023-06-22T09:03:37;6.80;;;5.07;;
7961;SDS011;4026;43.652;24.906;2023-06-22T09:06:04;5.72;;;4.47;;
7961;SDS011;4026;43.652;24.906;2023-06-22T09:08:31;5.88;;;4.75;;
7961;SDS011;4026;43.652;24.906;2023-06-22T09:10:58;5.90;;;4.53;;
7961;SDS011;4026;43.652;24.906;2023-06-22T09:13:27;5.72;;;4.60;;
7961;SDS011;4026;43.652;24.906;2023-06-22T09:15:57;5.35;;;4.50;;
7961;SDS011;4026;43.652;24.906;2023-06-22T09:18:24;6.05;;;4.68;;
7961;SDS011;4026;43.652;24.906;2023-06-22T09:20:51;7.18;;;4.32;;
7961;SDS011;4026;43.652;24.906;2023-06-22T09:23:18;5.88;;;4.60;;
7961;SDS011;4026;43.652;24.906;2023-06-22T09:25:45;5.97;;;4.53;;
7961;SDS011;4026;43.652;24.906;2023-06-22T09:28:13;5.93;;;4.68;;
7961;SDS011;4026;43.652;24.906;2023-06-22T09:30:42;5.90;;;4.82;;
7961;SDS011;4026;43.652;24.906;2023-06-22T09:33:09;6.22;;;4.70;;
7961;SDS011;4026;43.652;24.906;2023-06-22T09:35:36;6.13;;;4.53;;
7961;SDS011;4026;43.652;24.906;2023-06-22T09:38:02;6.38;;;4.68;;
7961;SDS011;4026;43.652;24.906;2023-06-22T09:40:29;5.00;;;4.00;;
7961;SDS011;4026;43.652;24.906;2023-06-22T09:42:57;5.57;;;4.68;;
7961;SDS011;4026;43.652;24.906;2023-06-22T09:45:24;6.22;;;4.63;;
7961;SDS011;4026;43.652;24.906;2023-06-22T09:47:52;5.88;;;4.70;;
7961;SDS011;4026;43.652;24.906;2023-06-22T09:50:19;6.43;;;4.88;;
7961;SDS011;4026;43.652;24.906;2023-06-22T09:52:46;7.47;;;4.63;;
7961;SDS011;4026;43.652;24.906;2023-06-22T09:55:15;5.47;;;4.53;;
7961;SDS011;4026;43.652;24.906;2023-06-22T09:57:42;5.82;;;4.70;;
7961;SDS011;4026;43.652;24.906;2023-06-22T10:00:10;5.90;;;4.88;;
7961;SDS011;4026;43.652;24.906;2023-06-22T10:02:38;5.88;;;4.57;;
7961;SDS011;4026;43.652;24.906;2023-06-22T10:05:07;5.72;;;4.82;;
7961;SDS011;4026;43.652;24.906;2023-06-22T10:07:34;5.20;;;4.25;;
7961;SDS011;4026;43.652;24.906;2023-06-22T10:10:05;5.20;;;4.43;;
7961;SDS011;4026;43.652;24.906;2023-06-22T10:12:32;6.45;;;4.80;;
7961;SDS011;4026;43.652;24.906;2023-06-22T10:14:59;7.82;;;5.15;;
7961;SDS011;4026;43.652;24.906;2023-06-22T10:17:26;5.63;;;4.55;;
7961;SDS011;4026;43.652;24.906;2023-06-22T10:19:53;5.95;;;4.70;;
7961;SDS011;4026;43.652;24.906;2023-06-22T10:22:21;6.45;;;4.88;;
7961;SDS011;4026;43.652;24.906;2023-06-22T10:24:48;5.93;;;4.63;;
7961;SDS011;4026;43.652;24.906;2023-06-22T10:27:14;5.93;;;4.65;;
7961;SDS011;4026;43.652;24.906;2023-06-22T10:29:41;6.00;;;4.80;;
7961;SDS011;4026;43.652;24.906;2023-06-22T10:32:09;5.68;;;4.47;;
7961;SDS011;4026;43.652;24.906;2023-06-22T10:34:36;8.38;;;4.72;;
7961;SDS011;4026;43.652;24.906;2023-06-22T10:37:03;6.80;;;5.07;;
7961;SDS011;4026;43.652;24.906;2023-06-22T10:39:32;5.60;;;4.82;;
7961;SDS011;4026;43.652;24.906;2023-06-22T10:41:59;5.75;;;4.78;;
7961;SDS011;4026;43.652;24.906;2023-06-22T10:44:26;6.60;;;4.97;;
7961;SDS011;4026;43.652;24.906;2023-06-22T10:46:52;5.60;;;4.68;;
7961;SDS011;4026;43.652;24.906;2023-06-22T10:49:19;4.88;;;4.38;;
7961;SDS011;4026;43.652;24.906;2023-06-22T10:51:46;5.65;;;4.65;;
7961;SDS011;4026;43.652;24.906;2023-06-22T10:54:13;6.32;;;4.65;;
7961;SDS011;4026;43.652;24.906;2023-06-22T10:56:43;5.00;;;3.92;;
7961;SDS011;4026;43.652;24.906;2023-06-22T10:59:10;5.43;;;4.43;;
7961;SDS011;4026;43.652;24.906;2023-06-22T11:01:37;5.28;;;4.40;;
7961;SDS011;4026;43.652;24.906;2023-06-22T11:04:04;6.13;;;4.75;;
7961;SDS011;4026;43.652;24.906;2023-06-22T11:06:31;6.05;;;4.78;;
7961;SDS011;4026;43.652;24.906;2023-06-22T11:08:58;6.13;;;4.85;;
7961;SDS011;4026;43.652;24.906;2023-06-22T11:11:25;6.22;;;4.60;;
7961;SDS011;4026;43.652;24.906;2023-06-22T11:13:54;5.82;;;4.72;;
7961;SDS011;4026;43.652;24.906;2023-06-22T11:16:21;5.15;;;4.38;;
7961;SDS011;4026;43.652;24.906;2023-06-22T11:18:47;5.57;;;4.15;;
7961;SDS011;4026;43.652;24.906;2023-06-22T11:21:14;11.85;;;4.90;;
7961;SDS011;4026;43.652;24.906;2023-06-22T11:23:41;6.03;;;4.70;;
7961;SDS011;4026;43.652;24.906;2023-06-22T11:26:08;6.50;;;4.60;;
7961;SDS011;4026;43.652;24.906;2023-06-22T11:28:35;6.35;;;4.70;;
7961;SDS011;4026;43.652;24.906;2023-06-22T11:31:04;6.15;;;4.55;;
7961;SDS011;4026;43.652;24.906;2023-06-22T11:33:32;7.20;;;5.15;;
7961;SDS011;4026;43.652;24.906;2023-06-22T11:35:59;5.68;;;4.72;;
7961;SDS011;4026;43.652;24.906;2023-06-22T11:38:26;6.50;;;4.72;;
7961;SDS011;4026;43.652;24.906;2023-06-22T11:40:52;6.63;;;4.60;;
7961;SDS011;4026;43.652;24.906;2023-06-22T11:43:19;7.65;;;4.85;;
7961;SDS011;4026;43.652;24.906;2023-06-22T11:45:46;5.72;;;4.85;;
7961;SDS011;4026;43.652;24.906;2023-06-22T11:48:15;5.78;;;4.63;;
7961;SDS011;4026;43.652;24.906;2023-06-22T11:50:41;4.78;;;4.18;;
7961;SDS011;4026;43.652;24.906;2023-06-22T11:53:08;6.72;;;5.03;;
7961;SDS011;4026;43.652;24.906;2023-06-22T11:55:35;5.63;;;4.82;;
7961;SDS011;4026;43.652;24.906;2023-06-22T11:58:02;5.55;;;4.63;;
7961;SDS011;4026;43.652;24.906;2023-06-22T12:00:30;5.72;;;4.47;;
7961;SDS011;4026;43.652;24.906;2023-06-22T12:02:57;7.88;;;5.10;;
7961;SDS011;4026;43.652;24.906;2023-06-22T12:05:25;5.85;;;4.57;;
7961;SDS011;4026;43.652;24.906;2023-06-22T12:07:53;5.80;;;4.80;;
7961;SDS011;4026;43.652;24.906;2023-06-22T12:10:20;7.20;;;5.18;;
7961;SDS011;4026;43.652;24.906;2023-06-22T12:12:47;6.00;;;4.57;;
7961;SDS011;4026;43.652;24.906;2023-06-22T12:15:14;5.07;;;4.45;;
7961;SDS011;4026;43.652;24.906;2023-06-22T12:17:41;4.93;;;4.18;;
7961;SDS011;4026;43.652;24.906;2023-06-22T12:20:08;5.78;;;4.55;;
7961;SDS011;4026;43.652;24.906;2023-06-22T12:22:37;7.13;;;4.80;;
7961;SDS011;4026;43.652;24.906;2023-06-22T12:25:04;6.30;;;4.75;;
7961;SDS011;4026;43.652;24.906;2023-06-22T12:27:32;9.45;;;4.43;;
7961;SDS011;4026;43.652;24.906;2023-06-22T12:29:58;7.45;;;4.80;;
7961;SDS011;4026;43.652;24.906;2023-06-22T12:32:25;5.78;;;4.38;;
7961;SDS011;4026;43.652;24.906;2023-06-22T12:34:52;7.47;;;4.38;;
7961;SDS011;4026;43.652;24.906;2023-06-22T12:37:19;4.82;;;4.13;;
7961;SDS011;4026;43.652;24.906;2023-06-22T12:39:47;6.70;;;4.55;;
7961;SDS011;4026;43.652;24.906;2023-06-22T12:42:14;7.30;;;4.68;;
7961;SDS011;4026;43.652;24.906;2023-06-22T12:44:41;5.68;;;4.57;;
7961;SDS011;4026;43.652;24.906;2023-06-22T12:47:09;6.93;;;4.97;;
7961;SDS011;4026;43.652;24.906;2023-06-22T12:49:36;7.10;;;4.72;;
7961;SDS011;4026;43.652;24.906;2023-06-22T12:52:08;5.93;;;4.35;;
7961;SDS011;4026;43.652;24.906;2023-06-22T12:54:35;6.00;;;4.50;;
7961;SDS011;4026;43.652;24.906;2023-06-22T12:57:03;6.38;;;4.70;;
7961;SDS011;4026;43.652;24.906;2023-06-22T12:59:30;5.88;;;4.57;;
7961;SDS011;4026;43.652;24.906;2023-06-22T13:01:57;6.05;;;4.65;;
7961;SDS011;4026;43.652;24.906;2023-06-22T13:04:24;5.43;;;4.40;;
7961;SDS011;4026;43.652;24.906;2023-06-22T13:06:51;7.28;;;4.78;;
7961;SDS011;4026;43.652;24.906;2023-06-22T13:09:18;7.03;;;4.50;;
7961;SDS011;4026;43.652;24.906;2023-06-22T13:11:46;5.78;;;4.18;;
7961;SDS011;4026;43.652;24.906;2023-06-22T13:14:14;5.07;;;4.30;;
7961;SDS011;4026;43.652;24.906;2023-06-22T13:16:42;6.18;;;4.50;;
7961;SDS011;4026;43.652;24.906;2023-06-22T13:19:09;5.65;;;4.30;;
7961;SDS011;4026;43.652;24.906;2023-06-22T13:21:35;7.65;;;4.75;;
7961;SDS011;4026;43.652;24.906;2023-06-22T13:24:02;5.03;;;4.30;;
7961;SDS011;4026;43.652;24.906;2023-06-22T13:26:31;5.65;;;4.35;;
7961;SDS011;4026;43.652;24.906;2023-06-22T13:28:58;5.65;;;4.15;;
7961;SDS011;4026;43.652;24.906;2023-06-22T13:31:26;5.15;;;4.28;;
7961;SDS011;4026;43.652;24.906;2023-06-22T13:33:53;6.50;;;4.80;;
7961;SDS011;4026;43.652;24.906;2023-06-22T13:36:20;7.78;;;4.57;;
7961;SDS011;4026;43.652;24.906;2023-06-22T13:38:48;6.07;;;4.60;;
7961;SDS011;4026;43.652;24.906;2023-06-22T13:41:15;11.45;;;4.80;;
7961;SDS011;4026;43.652;24.906;2023-06-22T13:43:42;5.40;;;4.60;;
7961;SDS011;4026;43.652;24.906;2023-06-22T13:46:09;6.25;;;4.30;;
7961;SDS011;4026;43.652;24.906;2023-06-22T13:48:37;8.55;;;4.75;;
7961;SDS011;4026;43.652;24.906;2023-06-22T13:51:04;9.75;;;4.55;;
7961;SDS011;4026;43.652;24.906;2023-06-22T13:53:31;6.28;;;4.63;;
7961;SDS011;4026;43.652;24.906;2023-06-22T13:55:58;6.35;;;4.45;;
7961;SDS011;4026;43.652;24.906;2023-06-22T13:58:24;5.68;;;4.13;;
7961;SDS011;4026;43.652;24.906;2023-06-22T14:00:52;5.70;;;4.35;;
7961;SDS011;4026;43.652;24.906;2023-06-22T14:03:19;7.97;;;4.50;;
7961;SDS011;4026;43.652;24.906;2023-06-22T14:05:47;6.03;;;4.20;;
7961;SDS011;4026;43.652;24.906;2023-06-22T14:08:14;5.40;;;4.47;;
7961;SDS011;4026;43.652;24.906;2023-06-22T14:10:41;5.75;;;4.35;;
7961;SDS011;4026;43.652;24.906;2023-06-22T14:13:08;5.30;;;4.50;;
7961;SDS011;4026;43.652;24.906;2023-06-22T14:15:35;5.72;;;4.43;;
7961;SDS011;4026;43.652;24.906;2023-06-22T14:18:02;8.88;;;4.55;;
7961;SDS011;4026;43.652;24.906;2023-06-22T14:20:29;7.53;;;4.90;;
7961;SDS011;4026;43.652;24.906;2023-06-22T14:22:57;5.40;;;4.53;;
7961;SDS011;4026;43.652;24.906;2023-06-22T14:25:24;10.57;;;4.65;;
7961;SDS011;4026;43.652;24.906;2023-06-22T14:27:51;5.60;;;4.45;;
7961;SDS011;4026;43.652;24.906;2023-06-22T14:30:17;5.35;;;4.15;;
7961;SDS011;4026;43.652;24.906;2023-06-22T14:32:44;7.03;;;4.55;;
7961;SDS011;4026;43.652;24.906;2023-06-22T14:35:11;5.88;;;4.50;;
7961;SDS011;4026;43.652;24.906;2023-06-22T14:37:38;4.93;;;4.07;;
7961;SDS011;4026;43.652;24.906;2023-06-22T14:40:07;6.70;;;4.53;;
7961;SDS011;4026;43.652;24.906;2023-06-22T14:42:34;6.75;;;4.00;;
7961;SDS011;4026;43.652;24.906;2023-06-22T14:45:01;6.05;;;4.30;;
7961;SDS011;4026;43.652;24.906;2023-06-22T14:47:28;5.63;;;4.40;;
7961;SDS011;4026;43.652;24.906;2023-06-22T14:49:55;6.57;;;4.70;;
7961;SDS011;4026;43.652;24.906;2023-06-22T14:52:21;5.30;;;4.30;;
7961;SDS011;4026;43.652;24.906;2023-06-22T14:54:48;5.45;;;4.18;;
7961;SDS011;4026;43.652;24.906;2023-06-22T14:57:18;6.57;;;4.55;;
7961;SDS011;4026;43.652;24.906;2023-06-22T14:59:48;6.57;;;4.82;;